sensor_id;sensor_type;location;lat;lon;timestamp;P1;durP1;ratioP1;P2;durP2;ratioP2
6860;SDS011;3469;47.060;15.460;2022-12-07T00:01:33;15.05;;;9.77;;
6860;SDS011;3469;47.060;15.460;2022-12-07T00:04:02;17.33;;;11.60;;
6860;SDS011;3469;47.060;15.460;2022-12-07T00:06:32;19.90;;;12.00;;
6860;SDS011;3469;47.060;15.460;2022-12-07T00:09:00;23.53;;;12.60;;
6860;SDS011;3469;47.060;15.460;2022-12-07T00:11:29;23.55;;;14.20;;
6860;SDS011;3469;47.060;15.460;2022-12-07T00:13:58;22.30;;;13.73;;
6860;SDS011;3469;47.060;15.460;2022-12-07T00:16:28;20.70;;;13.13;;
6860;SDS011;3469;47.060;15.460;2022-12-07T00:19:01;22.07;;;13.30;;
6860;SDS011;3469;47.060;15.460;2022-12-07T00:21:31;17.30;;;11.80;;
6860;SDS011;3469;47.060;15.460;2022-12-07T00:24:00;17.70;;;10.87;;
6860;SDS011;3469;47.060;15.460;2022-12-07T00:26:30;21.85;;;12.68;;
6860;SDS011;3469;47.060;15.460;2022-12-07T00:29:01;22.23;;;12.57;;
6860;SDS011;3469;47.060;15.460;2022-12-07T00:31:34;24.43;;;14.27;;
6860;SDS011;3469;47.060;15.460;2022-12-07T00:34:07;23.93;;;13.93;;
6860;SDS011;3469;47.060;15.460;2022-12-07T00:36:40;19.90;;;12.80;;
6860;SDS011;3469;47.060;15.460;2022-12-07T00:39:08;22.63;;;12.60;;
6860;SDS011;3469;47.060;15.460;2022-12-07T00:41:36;19.53;;;12.50;;
6860;SDS011;3469;47.060;15.460;2022-12-07T00:44:05;21.40;;;13.60;;
6860;SDS011;3469;47.060;15.460;2022-12-07T00:46:33;24.80;;;13.33;;
6860;SDS011;3469;47.060;15.460;2022-12-07T00:49:02;22.40;;;12.50;;
6860;SDS011;3469;47.060;15.460;2022-12-07T00:51:32;20.57;;;12.93;;
6860;SDS011;3469;47.060;15.460;2022-12-07T00:54:00;20.03;;;12.73;;
6860;SDS011;3469;47.060;15.460;2022-12-07T00:56:29;19.70;;;12.63;;
6860;SDS011;3469;47.060;15.460;2022-12-07T00:58:58;23.70;;;13.43;;
6860;SDS011;3469;47.060;15.460;2022-12-07T01:01:28;23.10;;;14.40;;
6860;SDS011;3469;47.060;15.460;2022-12-07T01:03:57;19.13;;;13.17;;
6860;SDS011;3469;47.060;15.460;2022-12-07T01:06:28;20.10;;;9.60;;
6860;SDS011;3469;47.060;15.460;2022-12-07T01:08:58;15.10;;;10.37;;
6860;SDS011;3469;47.060;15.460;2022-12-07T01:11:27;18.70;;;12.00;;
6860;SDS011;3469;47.060;15.460;2022-12-07T01:13:57;20.20;;;12.90;;
6860;SDS011;3469;47.060;15.460;2022-12-07T01:16:27;15.57;;;9.63;;
6860;SDS011;3469;47.060;15.460;2022-12-07T01:18:57;24.40;;;13.73;;
6860;SDS011;3469;47.060;15.460;2022-12-07T01:21:27;18.00;;;10.90;;
6860;SDS011;3469;47.060;15.460;2022-12-07T01:23:58;20.30;;;12.20;;
6860;SDS011;3469;47.060;15.460;2022-12-07T01:26:27;18.37;;;11.73;;
6860;SDS011;3469;47.060;15.460;2022-12-07T01:28:55;17.17;;;11.33;;
6860;SDS011;3469;47.060;15.460;2022-12-07T01:31:25;23.13;;;14.33;;
6860;SDS011;3469;47.060;15.460;2022-12-07T01:33:55;20.60;;;12.43;;
6860;SDS011;3469;47.060;15.460;2022-12-07T01:36:24;17.07;;;11.67;;
6860;SDS011;3469;47.060;15.460;2022-12-07T01:38:55;24.63;;;12.20;;
6860;SDS011;3469;47.060;15.460;2022-12-07T01:41:27;22.37;;;11.50;;
6860;SDS011;3469;47.060;15.460;2022-12-07T01:44:14;20.40;;;12.30;;
6860;SDS011;3469;47.060;15.460;2022-12-07T01:46:45;21.85;;;12.40;;
6860;SDS011;3469;47.060;15.460;2022-12-07T01:49:16;29.97;;;15.23;;
6860;SDS011;3469;47.060;15.460;2022-12-07T01:51:54;25.13;;;13.50;;
6860;SDS011;3469;47.060;15.460;2022-12-07T01:54:26;22.03;;;14.27;;
6860;SDS011;3469;47.060;15.460;2022-12-07T01:56:56;25.20;;;14.30;;
6860;SDS011;3469;47.060;15.460;2022-12-07T01:59:25;26.77;;;13.80;;
6860;SDS011;3469;47.060;15.460;2022-12-07T02:01:54;25.60;;;14.20;;
6860;SDS011;3469;47.060;15.460;2022-12-07T02:04:23;21.67;;;13.40;;
6860;SDS011;3469;47.060;15.460;2022-12-07T02:06:52;17.70;;;10.27;;
6860;SDS011;3469;47.060;15.460;2022-12-07T02:09:21;21.70;;;13.13;;
6860;SDS011;3469;47.060;15.460;2022-12-07T02:11:50;20.83;;;11.60;;
6860;SDS011;3469;47.060;15.460;2022-12-07T02:14:21;18.70;;;10.53;;
6860;SDS011;3469;47.060;15.460;2022-12-07T02:16:56;21.95;;;13.15;;
6860;SDS011;3469;47.060;15.460;2022-12-07T02:22:44;24.27;;;13.60;;
6860;SDS011;3469;47.060;15.460;2022-12-07T02:25:55;24.90;;;14.30;;
6860;SDS011;3469;47.060;15.460;2022-12-07T02:28:31;22.47;;;14.30;;
6860;SDS011;3469;47.060;15.460;2022-12-07T02:31:04;23.87;;;15.17;;
6860;SDS011;3469;47.060;15.460;2022-12-07T02:33:36;18.00;;;11.60;;
6860;SDS011;3469;47.060;15.460;2022-12-07T02:36:06;16.85;;;9.25;;
6860;SDS011;3469;47.060;15.460;2022-12-07T02:38:39;15.45;;;10.48;;
6860;SDS011;3469;47.060;15.460;2022-12-07T02:41:12;22.90;;;13.37;;
6860;SDS011;3469;47.060;15.460;2022-12-07T02:43:41;21.97;;;13.10;;
6860;SDS011;3469;47.060;15.460;2022-12-07T02:46:14;21.67;;;12.57;;
6860;SDS011;3469;47.060;15.460;2022-12-07T02:48:48;25.07;;;15.13;;
6860;SDS011;3469;47.060;15.460;2022-12-07T02:51:18;19.25;;;11.40;;
6860;SDS011;3469;47.060;15.460;2022-12-07T02:53:46;18.90;;;11.57;;
6860;SDS011;3469;47.060;15.460;2022-12-07T02:56:17;23.80;;;13.13;;
6860;SDS011;3469;47.060;15.460;2022-12-07T02:58:57;22.47;;;12.77;;
6860;SDS011;3469;47.060;15.460;2022-12-07T03:01:33;22.93;;;13.50;;
6860;SDS011;3469;47.060;15.460;2022-12-07T03:04:13;11.57;;;7.10;;
6860;SDS011;3469;47.060;15.460;2022-12-07T03:06:49;13.00;;;7.30;;
6860;SDS011;3469;47.060;15.460;2022-12-07T03:09:21;13.10;;;8.80;;
6860;SDS011;3469;47.060;15.460;2022-12-07T03:11:55;18.53;;;9.50;;
6860;SDS011;3469;47.060;15.460;2022-12-07T03:14:29;16.83;;;9.15;;
6860;SDS011;3469;47.060;15.460;2022-12-07T03:17:02;15.00;;;8.70;;
6860;SDS011;3469;47.060;15.460;2022-12-07T03:19:33;15.20;;;10.03;;
6860;SDS011;3469;47.060;15.460;2022-12-07T03:22:03;20.13;;;11.93;;
6860;SDS011;3469;47.060;15.460;2022-12-07T03:24:35;19.00;;;10.30;;
6860;SDS011;3469;47.060;15.460;2022-12-07T03:27:06;13.40;;;8.97;;
6860;SDS011;3469;47.060;15.460;2022-12-07T03:29:36;17.53;;;10.60;;
6860;SDS011;3469;47.060;15.460;2022-12-07T03:32:11;18.20;;;10.60;;
6860;SDS011;3469;47.060;15.460;2022-12-07T03:34:44;17.20;;;9.23;;
6860;SDS011;3469;47.060;15.460;2022-12-07T03:37:15;16.53;;;10.40;;
6860;SDS011;3469;47.060;15.460;2022-12-07T03:39:49;14.83;;;9.20;;
6860;SDS011;3469;47.060;15.460;2022-12-07T03:42:21;15.40;;;10.60;;
6860;SDS011;3469;47.060;15.460;2022-12-07T03:44:50;16.40;;;10.20;;
6860;SDS011;3469;47.060;15.460;2022-12-07T03:47:21;14.97;;;8.67;;
6860;SDS011;3469;47.060;15.460;2022-12-07T03:49:55;16.65;;;9.80;;
6860;SDS011;3469;47.060;15.460;2022-12-07T03:52:28;14.70;;;8.50;;
6860;SDS011;3469;47.060;15.460;2022-12-07T03:55:00;16.17;;;9.23;;
6860;SDS011;3469;47.060;15.460;2022-12-07T03:57:32;18.33;;;10.07;;
6860;SDS011;3469;47.060;15.460;2022-12-07T04:00:05;15.30;;;9.70;;
6860;SDS011;3469;47.060;15.460;2022-12-07T04:02:41;14.10;;;8.57;;
6860;SDS011;3469;47.060;15.460;2022-12-07T04:05:10;13.53;;;8.70;;
6860;SDS011;3469;47.060;15.460;2022-12-07T04:07:39;13.33;;;9.07;;
6860;SDS011;3469;47.060;15.460;2022-12-07T04:10:08;14.60;;;9.60;;
6860;SDS011;3469;47.060;15.460;2022-12-07T04:12:37;15.90;;;8.60;;
6860;SDS011;3469;47.060;15.460;2022-12-07T04:15:06;15.23;;;8.70;;
6860;SDS011;3469;47.060;15.460;2022-12-07T04:17:35;13.27;;;8.40;;
6860;SDS011;3469;47.060;15.460;2022-12-07T04:20:06;13.43;;;9.82;;
6860;SDS011;3469;47.060;15.460;2022-12-07T04:22:36;13.13;;;8.93;;
6860;SDS011;3469;47.060;15.460;2022-12-07T04:25:05;13.15;;;8.52;;
6860;SDS011;3469;47.060;15.460;2022-12-07T04:27:34;13.60;;;9.00;;
6860;SDS011;3469;47.060;15.460;2022-12-07T04:30:02;13.33;;;8.60;;
6860;SDS011;3469;47.060;15.460;2022-12-07T04:32:31;16.37;;;9.20;;
6860;SDS011;3469;47.060;15.460;2022-12-07T04:35:00;15.43;;;9.20;;
6860;SDS011;3469;47.060;15.460;2022-12-07T04:37:29;14.67;;;10.23;;
6860;SDS011;3469;47.060;15.460;2022-12-07T04:39:58;14.53;;;7.53;;
6860;SDS011;3469;47.060;15.460;2022-12-07T04:42:27;14.48;;;8.70;;
6860;SDS011;3469;47.060;15.460;2022-12-07T04:44:56;14.40;;;9.10;;
6860;SDS011;3469;47.060;15.460;2022-12-07T04:47:24;13.33;;;9.33;;
6860;SDS011;3469;47.060;15.460;2022-12-07T04:49:52;11.03;;;9.00;;
6860;SDS011;3469;47.060;15.460;2022-12-07T04:52:22;11.53;;;9.00;;
6860;SDS011;3469;47.060;15.460;2022-12-07T04:54:52;13.63;;;9.00;;
6860;SDS011;3469;47.060;15.460;2022-12-07T04:57:20;14.25;;;9.07;;
6860;SDS011;3469;47.060;15.460;2022-12-07T04:59:48;13.43;;;9.80;;
6860;SDS011;3469;47.060;15.460;2022-12-07T05:02:16;13.03;;;9.40;;
6860;SDS011;3469;47.060;15.460;2022-12-07T05:04:45;16.53;;;9.90;;
6860;SDS011;3469;47.060;15.460;2022-12-07T05:07:14;16.50;;;10.30;;
6860;SDS011;3469;47.060;15.460;2022-12-07T05:09:42;13.73;;;9.90;;
6860;SDS011;3469;47.060;15.460;2022-12-07T05:12:12;14.70;;;8.90;;
6860;SDS011;3469;47.060;15.460;2022-12-07T05:14:40;16.37;;;10.63;;
6860;SDS011;3469;47.060;15.460;2022-12-07T05:17:08;18.20;;;9.02;;
6860;SDS011;3469;47.060;15.460;2022-12-07T05:19:38;13.43;;;9.25;;
6860;SDS011;3469;47.060;15.460;2022-12-07T05:22:09;13.07;;;9.10;;
6860;SDS011;3469;47.060;15.460;2022-12-07T05:24:37;15.60;;;10.10;;
6860;SDS011;3469;47.060;15.460;2022-12-07T05:27:06;17.00;;;10.48;;
6860;SDS011;3469;47.060;15.460;2022-12-07T05:29:35;17.88;;;10.63;;
6860;SDS011;3469;47.060;15.460;2022-12-07T05:32:04;13.90;;;10.30;;
6860;SDS011;3469;47.060;15.460;2022-12-07T05:34:32;15.68;;;9.93;;
6860;SDS011;3469;47.060;15.460;2022-12-07T05:37:01;16.30;;;9.90;;
6860;SDS011;3469;47.060;15.460;2022-12-07T05:39:29;15.97;;;10.37;;
6860;SDS011;3469;47.060;15.460;2022-12-07T05:41:58;17.37;;;10.37;;
6860;SDS011;3469;47.060;15.460;2022-12-07T05:44:45;13.97;;;10.10;;
6860;SDS011;3469;47.060;15.460;2022-12-07T05:47:14;15.90;;;11.60;;
6860;SDS011;3469;47.060;15.460;2022-12-07T05:49:43;17.20;;;10.02;;
6860;SDS011;3469;47.060;15.460;2022-12-07T05:52:11;16.73;;;9.77;;
6860;SDS011;3469;47.060;15.460;2022-12-07T05:54:39;15.37;;;10.90;;
6860;SDS011;3469;47.060;15.460;2022-12-07T05:57:07;16.67;;;9.93;;
6860;SDS011;3469;47.060;15.460;2022-12-07T05:59:36;18.43;;;11.10;;
6860;SDS011;3469;47.060;15.460;2022-12-07T06:02:05;15.90;;;10.30;;
6860;SDS011;3469;47.060;15.460;2022-12-07T06:04:36;18.52;;;10.18;;
6860;SDS011;3469;47.060;15.460;2022-12-07T06:07:05;17.87;;;8.80;;
6860;SDS011;3469;47.060;15.460;2022-12-07T06:09:34;17.00;;;10.53;;
6860;SDS011;3469;47.060;15.460;2022-12-07T06:12:03;14.87;;;9.10;;
6860;SDS011;3469;47.060;15.460;2022-12-07T06:14:49;15.23;;;10.30;;
6860;SDS011;3469;47.060;15.460;2022-12-07T06:17:21;18.30;;;10.18;;
6860;SDS011;3469;47.060;15.460;2022-12-07T06:19:50;14.30;;;10.00;;
6860;SDS011;3469;47.060;15.460;2022-12-07T06:22:18;16.37;;;11.30;;
6860;SDS011;3469;47.060;15.460;2022-12-07T06:24:47;16.83;;;11.07;;
6860;SDS011;3469;47.060;15.460;2022-12-07T06:27:15;21.47;;;12.90;;
6860;SDS011;3469;47.060;15.460;2022-12-07T06:29:44;19.63;;;12.23;;
6860;SDS011;3469;47.060;15.460;2022-12-07T06:32:12;18.75;;;11.70;;
6860;SDS011;3469;47.060;15.460;2022-12-07T06:34:43;15.35;;;11.25;;
6860;SDS011;3469;47.060;15.460;2022-12-07T06:37:13;17.13;;;11.00;;
6860;SDS011;3469;47.060;15.460;2022-12-07T06:39:42;18.10;;;10.90;;
6860;SDS011;3469;47.060;15.460;2022-12-07T06:42:10;17.57;;;11.03;;
6860;SDS011;3469;47.060;15.460;2022-12-07T06:44:39;15.97;;;10.83;;
6860;SDS011;3469;47.060;15.460;2022-12-07T06:47:08;17.60;;;11.53;;
6860;SDS011;3469;47.060;15.460;2022-12-07T06:49:59;18.00;;;10.73;;
6860;SDS011;3469;47.060;15.460;2022-12-07T06:52:28;19.33;;;11.30;;
6860;SDS011;3469;47.060;15.460;2022-12-07T06:54:56;18.00;;;10.97;;
6860;SDS011;3469;47.060;15.460;2022-12-07T06:57:25;17.83;;;11.30;;
6860;SDS011;3469;47.060;15.460;2022-12-07T06:59:53;19.60;;;11.80;;
6860;SDS011;3469;47.060;15.460;2022-12-07T07:02:22;18.90;;;11.87;;
6860;SDS011;3469;47.060;15.460;2022-12-07T07:04:51;15.43;;;11.43;;
6860;SDS011;3469;47.060;15.460;2022-12-07T07:07:21;24.20;;;12.63;;
6860;SDS011;3469;47.060;15.460;2022-12-07T07:09:49;17.03;;;11.10;;
6860;SDS011;3469;47.060;15.460;2022-12-07T07:12:18;18.77;;;12.20;;
6860;SDS011;3469;47.060;15.460;2022-12-07T07:14:47;22.00;;;11.77;;
6860;SDS011;3469;47.060;15.460;2022-12-07T07:17:15;19.23;;;12.60;;
6860;SDS011;3469;47.060;15.460;2022-12-07T07:19:44;20.67;;;13.20;;
6860;SDS011;3469;47.060;15.460;2022-12-07T07:22:12;21.43;;;13.10;;
6860;SDS011;3469;47.060;15.460;2022-12-07T07:24:42;23.80;;;14.38;;
6860;SDS011;3469;47.060;15.460;2022-12-07T07:27:11;22.80;;;13.70;;
6860;SDS011;3469;47.060;15.460;2022-12-07T07:29:41;21.70;;;13.70;;
6860;SDS011;3469;47.060;15.460;2022-12-07T07:32:10;20.53;;;12.90;;
6860;SDS011;3469;47.060;15.460;2022-12-07T07:34:39;20.03;;;12.47;;
6860;SDS011;3469;47.060;15.460;2022-12-07T07:37:07;20.97;;;12.43;;
6860;SDS011;3469;47.060;15.460;2022-12-07T07:39:42;21.20;;;13.00;;
6860;SDS011;3469;47.060;15.460;2022-12-07T07:42:10;20.07;;;12.50;;
6860;SDS011;3469;47.060;15.460;2022-12-07T07:44:38;22.27;;;13.50;;
6860;SDS011;3469;47.060;15.460;2022-12-07T07:47:06;21.77;;;12.35;;
6860;SDS011;3469;47.060;15.460;2022-12-07T07:49:35;21.77;;;13.25;;
6860;SDS011;3469;47.060;15.460;2022-12-07T07:52:10;20.33;;;13.73;;
6860;SDS011;3469;47.060;15.460;2022-12-07T07:54:38;22.13;;;14.00;;
6860;SDS011;3469;47.060;15.460;2022-12-07T07:57:08;28.17;;;14.87;;
6860;SDS011;3469;47.060;15.460;2022-12-07T07:59:36;28.67;;;13.97;;
6860;SDS011;3469;47.060;15.460;2022-12-07T08:02:05;23.17;;;15.67;;
6860;SDS011;3469;47.060;15.460;2022-12-07T08:04:33;21.47;;;13.50;;
6860;SDS011;3469;47.060;15.460;2022-12-07T08:07:01;26.00;;;15.37;;
6860;SDS011;3469;47.060;15.460;2022-12-07T08:09:30;23.67;;;16.63;;
6860;SDS011;3469;47.060;15.460;2022-12-07T08:11:58;21.83;;;13.57;;
6860;SDS011;3469;47.060;15.460;2022-12-07T08:14:29;26.57;;;15.80;;
6860;SDS011;3469;47.060;15.460;2022-12-07T08:16:58;41.67;;;16.20;;
6860;SDS011;3469;47.060;15.460;2022-12-07T08:19:27;20.40;;;14.10;;
6860;SDS011;3469;47.060;15.460;2022-12-07T08:21:55;32.43;;;15.27;;
6860;SDS011;3469;47.060;15.460;2022-12-07T08:24:24;23.10;;;16.00;;
6860;SDS011;3469;47.060;15.460;2022-12-07T08:26:54;24.40;;;14.60;;
6860;SDS011;3469;47.060;15.460;2022-12-07T08:29:22;25.83;;;14.50;;
6860;SDS011;3469;47.060;15.460;2022-12-07T08:31:52;30.43;;;16.60;;
6860;SDS011;3469;47.060;15.460;2022-12-07T08:34:21;21.20;;;13.70;;
6860;SDS011;3469;47.060;15.460;2022-12-07T08:36:50;19.37;;;13.70;;
6860;SDS011;3469;47.060;15.460;2022-12-07T08:39:18;22.27;;;14.27;;
6860;SDS011;3469;47.060;15.460;2022-12-07T08:41:57;27.20;;;15.10;;
6860;SDS011;3469;47.060;15.460;2022-12-07T08:44:26;26.53;;;14.77;;
6860;SDS011;3469;47.060;15.460;2022-12-07T08:46:57;20.60;;;13.13;;
6860;SDS011;3469;47.060;15.460;2022-12-07T08:49:26;22.27;;;14.63;;
6860;SDS011;3469;47.060;15.460;2022-12-07T08:51:57;21.40;;;13.50;;
6860;SDS011;3469;47.060;15.460;2022-12-07T08:54:25;22.97;;;12.97;;
6860;SDS011;3469;47.060;15.460;2022-12-07T08:56:55;21.13;;;12.60;;
6860;SDS011;3469;47.060;15.460;2022-12-07T08:59:26;21.97;;;14.23;;
6860;SDS011;3469;47.060;15.460;2022-12-07T09:01:56;19.67;;;13.83;;
6860;SDS011;3469;47.060;15.460;2022-12-07T09:04:25;20.37;;;13.80;;
6860;SDS011;3469;47.060;15.460;2022-12-07T09:06:53;24.23;;;12.80;;
6860;SDS011;3469;47.060;15.460;2022-12-07T09:09:22;18.60;;;13.00;;
6860;SDS011;3469;47.060;15.460;2022-12-07T09:11:52;18.80;;;13.30;;
6860;SDS011;3469;47.060;15.460;2022-12-07T09:14:21;25.23;;;14.03;;
6860;SDS011;3469;47.060;15.460;2022-12-07T09:16:49;21.00;;;15.20;;
6860;SDS011;3469;47.060;15.460;2022-12-07T09:19:20;19.27;;;12.90;;
6860;SDS011;3469;47.060;15.460;2022-12-07T09:21:48;18.50;;;13.33;;
6860;SDS011;3469;47.060;15.460;2022-12-07T09:24:16;20.27;;;12.40;;
6860;SDS011;3469;47.060;15.460;2022-12-07T09:26:45;16.50;;;10.80;;
6860;SDS011;3469;47.060;15.460;2022-12-07T09:29:15;17.43;;;12.47;;
6860;SDS011;3469;47.060;15.460;2022-12-07T09:31:43;19.80;;;13.07;;
6860;SDS011;3469;47.060;15.460;2022-12-07T09:34:12;18.30;;;12.37;;
6860;SDS011;3469;47.060;15.460;2022-12-07T09:36:42;17.60;;;12.37;;
6860;SDS011;3469;47.060;15.460;2022-12-07T09:39:11;20.90;;;12.70;;
6860;SDS011;3469;47.060;15.460;2022-12-07T09:41:40;22.70;;;13.83;;
6860;SDS011;3469;47.060;15.460;2022-12-07T09:44:11;19.10;;;13.10;;
6860;SDS011;3469;47.060;15.460;2022-12-07T09:46:42;23.90;;;15.57;;
6860;SDS011;3469;47.060;15.460;2022-12-07T09:49:11;28.23;;;17.23;;
6860;SDS011;3469;47.060;15.460;2022-12-07T09:51:42;22.90;;;15.23;;
6860;SDS011;3469;47.060;15.460;2022-12-07T09:54:12;24.27;;;14.90;;
6860;SDS011;3469;47.060;15.460;2022-12-07T09:56:41;21.67;;;14.90;;
6860;SDS011;3469;47.060;15.460;2022-12-07T09:59:12;22.27;;;15.37;;
6860;SDS011;3469;47.060;15.460;2022-12-07T10:01:46;24.60;;;15.63;;
6860;SDS011;3469;47.060;15.460;2022-12-07T10:04:16;31.03;;;16.80;;
6860;SDS011;3469;47.060;15.460;2022-12-07T10:06:47;28.00;;;15.70;;
6860;SDS011;3469;47.060;15.460;2022-12-07T10:09:18;26.40;;;16.70;;
6860;SDS011;3469;47.060;15.460;2022-12-07T10:12:04;28.60;;;14.50;;
6860;SDS011;3469;47.060;15.460;2022-12-07T10:14:34;28.17;;;15.37;;
6860;SDS011;3469;47.060;15.460;2022-12-07T10:17:31;25.77;;;16.50;;
6860;SDS011;3469;47.060;15.460;2022-12-07T10:20:11;29.17;;;18.10;;
6860;SDS011;3469;47.060;15.460;2022-12-07T10:22:55;26.53;;;17.77;;
6860;SDS011;3469;47.060;15.460;2022-12-07T10:25:26;23.50;;;15.97;;
6860;SDS011;3469;47.060;15.460;2022-12-07T10:28:08;25.23;;;16.90;;
6860;SDS011;3469;47.060;15.460;2022-12-07T10:30:52;31.80;;;19.73;;
6860;SDS011;3469;47.060;15.460;2022-12-07T10:33:27;29.90;;;17.00;;
6860;SDS011;3469;47.060;15.460;2022-12-07T10:36:00;27.83;;;16.07;;
6860;SDS011;3469;47.060;15.460;2022-12-07T10:38:38;37.67;;;16.50;;
6860;SDS011;3469;47.060;15.460;2022-12-07T10:41:13;26.87;;;16.17;;
6860;SDS011;3469;47.060;15.460;2022-12-07T10:43:48;32.03;;;17.10;;
6860;SDS011;3469;47.060;15.460;2022-12-07T10:49:21;27.17;;;17.83;;
6860;SDS011;3469;47.060;15.460;2022-12-07T10:52:13;31.03;;;18.07;;
6860;SDS011;3469;47.060;15.460;2022-12-07T10:54:48;31.00;;;17.60;;
6860;SDS011;3469;47.060;15.460;2022-12-07T10:57:23;30.97;;;16.73;;
6860;SDS011;3469;47.060;15.460;2022-12-07T11:00:00;30.30;;;17.30;;
6860;SDS011;3469;47.060;15.460;2022-12-07T11:02:36;26.47;;;17.73;;
6860;SDS011;3469;47.060;15.460;2022-12-07T11:05:22;28.87;;;17.93;;
6860;SDS011;3469;47.060;15.460;2022-12-07T11:07:58;27.27;;;17.67;;
6860;SDS011;3469;47.060;15.460;2022-12-07T11:10:36;23.33;;;17.23;;
6860;SDS011;3469;47.060;15.460;2022-12-07T11:13:15;34.77;;;18.60;;
6860;SDS011;3469;47.060;15.460;2022-12-07T11:16:07;29.90;;;17.57;;
6860;SDS011;3469;47.060;15.460;2022-12-07T11:19:00;27.17;;;16.97;;
6860;SDS011;3469;47.060;15.460;2022-12-07T11:21:36;26.57;;;18.13;;
6860;SDS011;3469;47.060;15.460;2022-12-07T11:24:13;23.33;;;15.37;;
6860;SDS011;3469;47.060;15.460;2022-12-07T11:26:51;34.23;;;16.27;;
6860;SDS011;3469;47.060;15.460;2022-12-07T11:32:26;22.13;;;15.20;;
6860;SDS011;3469;47.060;15.460;2022-12-07T11:35:08;23.60;;;16.77;;
6860;SDS011;3469;47.060;15.460;2022-12-07T11:37:39;27.00;;;17.00;;
6860;SDS011;3469;47.060;15.460;2022-12-07T11:40:13;28.43;;;17.23;;
6860;SDS011;3469;47.060;15.460;2022-12-07T11:42:49;24.10;;;16.40;;
6860;SDS011;3469;47.060;15.460;2022-12-07T11:45:22;30.80;;;16.47;;
6860;SDS011;3469;47.060;15.460;2022-12-07T11:47:55;25.40;;;15.87;;
6860;SDS011;3469;47.060;15.460;2022-12-07T11:50:33;23.13;;;16.57;;
6860;SDS011;3469;47.060;15.460;2022-12-07T11:53:05;23.37;;;15.87;;
6860;SDS011;3469;47.060;15.460;2022-12-07T11:55:41;25.17;;;17.47;;
6860;SDS011;3469;47.060;15.460;2022-12-07T11:58:18;26.97;;;16.53;;
6860;SDS011;3469;47.060;15.460;2022-12-07T12:00:55;28.30;;;17.77;;
6860;SDS011;3469;47.060;15.460;2022-12-07T12:03:34;29.27;;;17.03;;
6860;SDS011;3469;47.060;15.460;2022-12-07T12:06:06;29.50;;;17.77;;
6860;SDS011;3469;47.060;15.460;2022-12-07T12:08:35;30.00;;;17.57;;
6860;SDS011;3469;47.060;15.460;2022-12-07T12:11:31;33.70;;;20.30;;
6860;SDS011;3469;47.060;15.460;2022-12-07T12:14:14;31.50;;;19.80;;
6860;SDS011;3469;47.060;15.460;2022-12-07T12:20:04;30.33;;;18.07;;
6860;SDS011;3469;47.060;15.460;2022-12-07T12:22:39;25.13;;;16.37;;
6860;SDS011;3469;47.060;15.460;2022-12-07T12:25:13;30.17;;;18.20;;
6860;SDS011;3469;47.060;15.460;2022-12-07T12:27:49;25.10;;;16.17;;
6860;SDS011;3469;47.060;15.460;2022-12-07T12:30:30;29.20;;;17.60;;
6860;SDS011;3469;47.060;15.460;2022-12-07T12:33:02;32.10;;;17.50;;
6860;SDS011;3469;47.060;15.460;2022-12-07T12:35:33;24.60;;;17.90;;
6860;SDS011;3469;47.060;15.460;2022-12-07T12:41:05;23.27;;;16.97;;
6860;SDS011;3469;47.060;15.460;2022-12-07T12:49:34;23.70;;;16.30;;
6860;SDS011;3469;47.060;15.460;2022-12-07T12:55:21;23.47;;;16.90;;
6860;SDS011;3469;47.060;15.460;2022-12-07T13:04:23;27.03;;;17.10;;
6860;SDS011;3469;47.060;15.460;2022-12-07T13:07:10;20.73;;;15.33;;
6860;SDS011;3469;47.060;15.460;2022-12-07T13:09:42;26.37;;;16.60;;
6860;SDS011;3469;47.060;15.460;2022-12-07T13:12:12;26.30;;;15.80;;
6860;SDS011;3469;47.060;15.460;2022-12-07T13:14:43;24.80;;;16.57;;
6860;SDS011;3469;47.060;15.460;2022-12-07T13:23:26;27.23;;;17.80;;
6860;SDS011;3469;47.060;15.460;2022-12-07T13:28:45;26.20;;;16.83;;
6860;SDS011;3469;47.060;15.460;2022-12-07T13:34:03;25.57;;;17.53;;
6860;SDS011;3469;47.060;15.460;2022-12-07T13:36:36;28.27;;;16.70;;
6860;SDS011;3469;47.060;15.460;2022-12-07T13:39:16;22.53;;;16.70;;
6860;SDS011;3469;47.060;15.460;2022-12-07T13:41:49;20.47;;;14.97;;
6860;SDS011;3469;47.060;15.460;2022-12-07T13:44:18;26.93;;;17.40;;
6860;SDS011;3469;47.060;15.460;2022-12-07T13:46:49;30.17;;;16.03;;
6860;SDS011;3469;47.060;15.460;2022-12-07T13:49:22;25.97;;;18.60;;
6860;SDS011;3469;47.060;15.460;2022-12-07T13:51:53;23.03;;;16.70;;
6860;SDS011;3469;47.060;15.460;2022-12-07T13:54:26;29.43;;;16.70;;
6860;SDS011;3469;47.060;15.460;2022-12-07T13:56:55;28.33;;;17.00;;
6860;SDS011;3469;47.060;15.460;2022-12-07T13:59:24;29.40;;;18.23;;
6860;SDS011;3469;47.060;15.460;2022-12-07T14:01:54;27.73;;;17.73;;
6860;SDS011;3469;47.060;15.460;2022-12-07T14:04:30;29.93;;;16.57;;
6860;SDS011;3469;47.060;15.460;2022-12-07T14:07:17;26.07;;;16.60;;
6860;SDS011;3469;47.060;15.460;2022-12-07T14:09:54;23.60;;;15.90;;
6860;SDS011;3469;47.060;15.460;2022-12-07T14:12:24;21.80;;;16.47;;
6860;SDS011;3469;47.060;15.460;2022-12-07T14:14:55;23.00;;;16.53;;
6860;SDS011;3469;47.060;15.460;2022-12-07T14:17:25;22.00;;;16.87;;
6860;SDS011;3469;47.060;15.460;2022-12-07T14:19:55;23.10;;;16.90;;
6860;SDS011;3469;47.060;15.460;2022-12-07T14:22:27;26.33;;;17.77;;
6860;SDS011;3469;47.060;15.460;2022-12-07T14:24:58;24.77;;;16.97;;
6860;SDS011;3469;47.060;15.460;2022-12-07T14:27:47;20.77;;;16.30;;
6860;SDS011;3469;47.060;15.460;2022-12-07T14:30:17;29.30;;;16.33;;
6860;SDS011;3469;47.060;15.460;2022-12-07T14:32:46;23.43;;;16.90;;
6860;SDS011;3469;47.060;15.460;2022-12-07T14:35:17;26.40;;;18.70;;
6860;SDS011;3469;47.060;15.460;2022-12-07T14:37:48;24.33;;;16.97;;
6860;SDS011;3469;47.060;15.460;2022-12-07T14:40:18;27.30;;;17.63;;
6860;SDS011;3469;47.060;15.460;2022-12-07T14:42:49;32.40;;;17.93;;
6860;SDS011;3469;47.060;15.460;2022-12-07T14:45:20;26.53;;;18.90;;
6860;SDS011;3469;47.060;15.460;2022-12-07T14:47:49;29.50;;;18.43;;
6860;SDS011;3469;47.060;15.460;2022-12-07T14:50:38;27.97;;;18.20;;
6860;SDS011;3469;47.060;15.460;2022-12-07T14:53:31;26.63;;;18.27;;
6860;SDS011;3469;47.060;15.460;2022-12-07T14:56:02;26.77;;;17.50;;
6860;SDS011;3469;47.060;15.460;2022-12-07T14:58:32;24.90;;;17.70;;
6860;SDS011;3469;47.060;15.460;2022-12-07T15:01:01;24.73;;;17.67;;
6860;SDS011;3469;47.060;15.460;2022-12-07T15:03:29;25.73;;;19.07;;
6860;SDS011;3469;47.060;15.460;2022-12-07T15:05:59;27.63;;;18.40;;
6860;SDS011;3469;47.060;15.460;2022-12-07T15:08:27;27.40;;;18.97;;
6860;SDS011;3469;47.060;15.460;2022-12-07T15:10:58;33.43;;;19.70;;
6860;SDS011;3469;47.060;15.460;2022-12-07T15:13:26;35.77;;;19.23;;
6860;SDS011;3469;47.060;15.460;2022-12-07T15:16:12;25.80;;;17.90;;
6860;SDS011;3469;47.060;15.460;2022-12-07T15:18:41;31.70;;;20.73;;
6860;SDS011;3469;47.060;15.460;2022-12-07T15:21:30;28.37;;;19.23;;
6860;SDS011;3469;47.060;15.460;2022-12-07T15:23:58;34.43;;;20.17;;
6860;SDS011;3469;47.060;15.460;2022-12-07T15:26:28;29.90;;;20.67;;
6860;SDS011;3469;47.060;15.460;2022-12-07T15:28:56;30.50;;;19.83;;
6860;SDS011;3469;47.060;15.460;2022-12-07T15:31:25;25.87;;;18.00;;
6860;SDS011;3469;47.060;15.460;2022-12-07T15:34:13;26.10;;;17.70;;
6860;SDS011;3469;47.060;15.460;2022-12-07T15:36:41;29.30;;;20.20;;
6860;SDS011;3469;47.060;15.460;2022-12-07T15:39:10;25.97;;;17.90;;
6860;SDS011;3469;47.060;15.460;2022-12-07T15:41:42;28.57;;;19.87;;
6860;SDS011;3469;47.060;15.460;2022-12-07T15:44:11;24.93;;;16.80;;
6860;SDS011;3469;47.060;15.460;2022-12-07T15:46:58;34.13;;;20.33;;